Maidstone, Vermont
Current Conditions -  °F | °C
As of 12:15 AM on Sunday 26 Oct 2014 (Local Time) from KCDA Reporting Station
Moderate Fog Moderate Fog  
Wind Chill: 45°   Ceiling: 100
Heat Index: 45°   Visibility: 0mi
Dew Point: 43°   Wind: 0mph
Humidity: 91%   Direction: NA
Pressure: 29.45"   Gusts: NA
Location:  44.7348°N, 71.6296°W
Report Text: KCDA 260415Z AUTO 00000KT M1/4SM FG OVC001 07/06 A2945 RMK AO2 T00730060
Loading
Personal Weather Stations






























Interactive Weather Map
Tropical Storm Tracking
New forecast layout! Learn more

10-Day Weather Forecast

Advertisements
Track Severe Weather on mobile